Overview Statistics Trail Chart Weather Telemetry Raw packets
 

This is the latest recevied weather packets stored in our database for station/object E22ZMG-2. If no packets are shown the sender has not sent any weather packets the latest 10 day(s).

<< 13 14 15 16 17 18 19 >>
Time Temp. Humidity Pressure Rain* Wind** Luminosity Snow
1777423734 26.67° C 61% 927 hPa - - 0 W/m² -
1777423110 26.11° C 62% 927 hPa - - 0 W/m² -
1777422486 26.11° C 63% 927 hPa - - 0 W/m² -
1777421862 26.11° C 63% 927 hPa - - 0 W/m² -
1777421238 25.56° C 63% 926 hPa - - 0 W/m² -
1777420999 26.11° C 63% 926 hPa - - 0 W/m² -
1777420375 25.56° C 64% 926 hPa - - 0 W/m² -
1777419751 25.56° C 64% 926 hPa - - 0 W/m² -
1777391342 28.33° C 50% 928 hPa - - 0 W/m² -
1777390718 28.89° C 48% 928 hPa - - 0 W/m² -
1777390094 29.44° C 48% 928 hPa - - 0 W/m² -
1777389470 29.44° C 47% 927 hPa - - 0 W/m² -
1777388845 29.44° C 47% 927 hPa - - 0 W/m² -
1777388221 29.44° C 47% 927 hPa - - 0 W/m² -
1777387597 29.44° C 47% 927 hPa - - 0 W/m² -
1777386972 30° C 46% 927 hPa - - 0 W/m² -
1777386349 29.44° C 47% 927 hPa - - 0 W/m² -
1777385724 30° C 45% 927 hPa - - 0 W/m² -
1777385100 30.56° C 44% 926 hPa - - 0 W/m² -
1777384476 30.56° C 44% 926 hPa - - 0 W/m² -
1777383852 30.56° C 45% 926 hPa - - 0 W/m² -
1777383228 31.11° C 44% 926 hPa - - 0 W/m² -
1777382604 31.67° C 46% 925 hPa - - 0 W/m² -
1777381979 32.22° C 45% 925 hPa - - 0 W/m² -
1777381355 32.22° C 45% 925 hPa - - 0 W/m² -

* Rain since midnight (hover to see other rain measurements)
** Current wind speed in m/s (hover to see current wind gust speed)